createdAt,value
2022-10-02T00:01:39.083Z,41.00
2022-10-02T00:04:11.059Z,36.60
2022-10-02T00:06:45.987Z,31.20
2022-10-02T00:09:27.033Z,31.80
2022-10-02T00:11:59.054Z,29.40
2022-10-02T00:14:30.942Z,31.40
2022-10-02T00:17:02.478Z,17.80
2022-10-02T00:19:31.585Z,28.80
2022-10-02T00:22:13.027Z,31.80
2022-10-02T00:24:44.903Z,42.40
2022-10-02T00:27:38.007Z,33.60
2022-10-02T00:30:09.250Z,42.80
2022-10-02T00:32:55.920Z,32.60
2022-10-02T00:35:36.889Z,37.20
2022-10-02T00:38:29.286Z,29.20
2022-10-02T00:41:28.206Z,37.60
2022-10-02T00:44:17.388Z,38.60
2022-10-02T00:46:52.240Z,40.80
2022-10-02T00:49:51.576Z,36.20
2022-10-02T00:52:23.443Z,45.40
2022-10-02T00:55:19.914Z,50.40
2022-10-02T00:58:00.641Z,51.20
2022-10-02T01:00:29.686Z,41.80
2022-10-02T01:03:13.201Z,37.40
2022-10-02T01:05:42.484Z,37.60
2022-10-02T01:08:11.647Z,38.40
2022-10-02T01:10:41.608Z,39.80
2022-10-02T01:13:10.748Z,47.60
2022-10-02T01:15:46.097Z,44.20
2022-10-02T01:18:16.330Z,42.00
2022-10-02T01:20:53.772Z,47.80
2022-10-02T01:23:31.171Z,46.40
2022-10-02T01:26:01.534Z,47.40
2022-10-02T01:28:31.239Z,50.40
2022-10-02T01:31:03.177Z,55.20
2022-10-02T01:33:33.032Z,42.20
2022-10-02T01:36:02.625Z,52.80
2022-10-02T01:38:32.394Z,42.80
2022-10-02T01:41:01.558Z,49.60
2022-10-02T01:43:39.524Z,41.20
2022-10-02T01:46:29.398Z,44.20
2022-10-02T01:49:22.625Z,52.60
2022-10-02T01:52:15.900Z,48.00
2022-10-02T01:55:13.417Z,53.60
2022-10-02T01:57:50.928Z,57.20
2022-10-02T02:00:22.607Z,48.40
2022-10-02T02:03:21.673Z,49.00
2022-10-02T02:05:53.599Z,50.40
2022-10-02T02:08:40.688Z,28.80
2022-10-02T02:11:21.298Z,55.00
2022-10-02T02:14:09.790Z,43.00
2022-10-02T02:16:48.115Z,42.60
2022-10-02T02:19:29.249Z,49.60
2022-10-02T02:22:01.176Z,44.00
2022-10-02T02:24:33.026Z,44.60
2022-10-02T02:27:04.016Z,50.00
2022-10-02T02:29:35.881Z,51.20
2022-10-02T02:32:07.718Z,43.60
2022-10-02T02:34:45.818Z,41.20
2022-10-02T02:37:19.129Z,30.20
2022-10-02T02:39:54.113Z,33.20
2022-10-02T02:42:26.459Z,42.40
2022-10-02T02:45:13.210Z,38.40
2022-10-02T02:47:45.104Z,35.20
2022-10-02T02:50:19.864Z,34.00
2022-10-02T02:52:57.307Z,30.00
2022-10-02T02:55:32.019Z,34.00
2022-10-02T02:58:15.851Z,27.60
2022-10-02T03:00:45.016Z,29.80
2022-10-02T03:03:13.950Z,26.60
2022-10-02T03:05:48.527Z,25.80
2022-10-02T03:08:26.000Z,27.00
2022-10-02T03:11:04.497Z,29.20
2022-10-02T03:13:51.216Z,29.80
2022-10-02T03:16:41.205Z,23.40
2022-10-02T03:19:31.233Z,32.80
2022-10-02T03:22:21.305Z,25.20
2022-10-02T03:24:53.254Z,7.40
2022-10-02T03:27:40.001Z,31.00
2022-10-02T03:30:19.424Z,26.00
2022-10-02T03:32:52.041Z,28.60
2022-10-02T03:35:23.646Z,25.20
2022-10-02T03:37:55.749Z,19.20
2022-10-02T03:40:26.447Z,22.80
2022-10-02T03:42:57.360Z,23.20
2022-10-02T03:45:50.351Z,17.60
2022-10-02T03:48:01.312Z,34.60
2022-10-02T03:50:34.114Z,27.40
2022-10-02T03:53:01.106Z,20.40
2022-10-02T03:55:33.618Z,29.60
2022-10-02T03:58:05.617Z,25.60
2022-10-02T04:00:37.528Z,29.60
2022-10-02T04:03:15.648Z,30.40
2022-10-02T04:05:59.609Z,29.80
2022-10-02T04:08:37.456Z,22.40
2022-10-02T04:11:09.376Z,28.60
2022-10-02T04:14:02.749Z,27.80
2022-10-02T04:16:34.949Z,21.00
2022-10-02T04:19:07.263Z,21.00
2022-10-02T04:21:44.732Z,31.20
2022-10-02T04:24:36.660Z,27.20
2022-10-02T04:27:20.820Z,24.00
2022-10-02T04:29:58.207Z,19.60
2022-10-02T04:32:32.333Z,21.40
2022-10-02T04:35:03.176Z,29.00
2022-10-02T04:37:54.748Z,31.00
2022-10-02T04:40:44.941Z,22.60
2022-10-02T04:43:19.878Z,21.80
2022-10-02T04:46:07.274Z,25.60
2022-10-02T04:48:39.344Z,26.20
2022-10-02T04:51:14.191Z,27.00
2022-10-02T04:53:48.795Z,22.60
2022-10-02T04:56:44.857Z,24.60
2022-10-02T04:59:25.462Z,20.60
2022-10-02T05:02:00.361Z,33.20
2022-10-02T05:04:35.085Z,23.60
2022-10-02T05:07:09.683Z,17.60
2022-10-02T05:09:44.523Z,29.00
2022-10-02T05:12:16.476Z,24.40
2022-10-02T05:15:11.302Z,27.40
2022-10-02T05:18:01.224Z,32.20
2022-10-02T05:20:48.199Z,28.80
2022-10-02T05:23:26.225Z,20.60
2022-10-02T05:26:00.940Z,34.00
2022-10-02T05:28:32.966Z,26.60
2022-10-02T05:31:35.339Z,21.00
2022-10-02T05:34:28.028Z,35.20
2022-10-02T05:37:08.250Z,26.60
2022-10-02T05:39:40.113Z,26.40
2022-10-02T05:42:23.805Z,23.00
2022-10-02T05:45:04.118Z,24.40
2022-10-02T05:47:39.010Z,25.80
2022-10-02T05:50:19.769Z,20.40
2022-10-02T05:53:01.868Z,27.80
2022-10-02T05:55:39.702Z,17.00
2022-10-02T05:58:14.470Z,31.60
2022-10-02T06:01:01.515Z,33.20
2022-10-02T06:03:39.635Z,27.20
2022-10-02T06:06:14.985Z,34.40
2022-10-02T06:08:56.696Z,19.20
2022-10-02T06:11:31.231Z,23.20
2022-10-02T06:14:10.668Z,22.60
2022-10-02T06:16:50.891Z,24.60
2022-10-02T06:19:31.546Z,24.00
2022-10-02T06:22:12.623Z,24.60
2022-10-02T06:24:44.639Z,22.60
2022-10-02T06:27:16.496Z,33.40
2022-10-02T06:29:57.341Z,27.40
2022-10-02T06:32:56.321Z,23.60
2022-10-02T06:35:43.294Z,34.60
2022-10-02T06:38:23.836Z,27.60
2022-10-02T06:40:58.537Z,25.00
2022-10-02T06:44:03.862Z,20.60
2022-10-02T06:46:51.617Z,21.80
2022-10-02T06:49:41.716Z,25.00
2022-10-02T06:52:37.774Z,22.20
2022-10-02T06:55:06.730Z,29.20
2022-10-02T06:57:41.575Z,18.60
2022-10-02T07:00:18.426Z,22.60
2022-10-02T07:03:14.512Z,23.80
2022-10-02T07:05:49.140Z,21.80
2022-10-02T07:08:23.959Z,26.20
2022-10-02T07:10:56.141Z,27.60
2022-10-02T07:13:32.371Z,27.60
2022-10-02T07:16:08.929Z,25.00
2022-10-02T07:18:53.068Z,25.40
2022-10-02T07:21:39.246Z,23.20
2022-10-02T07:24:11.483Z,25.00
2022-10-02T07:26:49.301Z,25.40
2022-10-02T07:29:45.384Z,29.40
2022-10-02T07:32:26.220Z,26.20
2022-10-02T07:34:59.237Z,33.40
2022-10-02T07:37:47.815Z,25.80
2022-10-02T07:40:37.878Z,24.60
2022-10-02T07:43:12.521Z,28.00
2022-10-02T07:45:42.472Z,26.20
2022-10-02T07:48:29.330Z,31.60
2022-10-02T07:51:19.122Z,29.40
2022-10-02T07:53:51.602Z,27.60
2022-10-02T07:56:23.142Z,24.20
2022-10-02T07:59:00.842Z,32.20
2022-10-02T08:01:35.870Z,33.20
2022-10-02T08:04:13.516Z,38.20
2022-10-02T08:06:44.898Z,32.20
2022-10-02T08:09:22.611Z,30.80
2022-10-02T08:12:00.456Z,32.00
2022-10-02T08:14:39.832Z,41.20
2022-10-02T08:17:24.077Z,41.00
2022-10-02T08:19:55.821Z,38.80
2022-10-02T08:22:33.489Z,41.60
2022-10-02T08:25:05.757Z,35.20
2022-10-02T08:27:37.690Z,24.60
2022-10-02T08:30:10.146Z,47.40
2022-10-02T08:32:39.256Z,37.60
2022-10-02T08:35:20.038Z,39.80
2022-10-02T08:38:25.279Z,40.40
2022-10-02T08:41:16.832Z,37.80
2022-10-02T08:44:17.459Z,44.60
2022-10-02T08:47:07.505Z,37.60
2022-10-02T08:49:45.457Z,34.60
2022-10-02T08:52:26.604Z,34.40
2022-10-02T08:55:07.573Z,31.00
2022-10-02T08:58:13.226Z,31.00
2022-10-02T09:00:55.842Z,40.20
2022-10-02T09:03:47.770Z,37.40
2022-10-02T09:06:48.679Z,19.80
2022-10-02T09:09:40.024Z,30.80
2022-10-02T09:12:29.968Z,32.00
2022-10-02T09:15:07.464Z,27.20
2022-10-02T09:17:48.309Z,25.80
2022-10-02T09:20:32.024Z,29.60
2022-10-02T09:23:28.189Z,29.20
2022-10-02T09:26:19.742Z,23.40
2022-10-02T09:29:06.749Z,21.40
2022-10-02T09:31:53.922Z,26.80
2022-10-02T09:34:51.902Z,23.40
2022-10-02T09:37:50.132Z,24.40
2022-10-02T09:40:26.607Z,27.00
2022-10-02T09:43:22.875Z,29.20
2022-10-02T09:46:12.950Z,20.80
2022-10-02T09:48:57.173Z,24.40
2022-10-02T09:52:04.044Z,23.20
2022-10-02T09:54:41.934Z,25.80
2022-10-02T09:57:35.982Z,37.60
2022-10-02T10:00:14.126Z,27.20
2022-10-02T10:03:05.642Z,27.80
2022-10-02T10:05:53.708Z,30.20
2022-10-02T10:08:34.855Z,29.60
2022-10-02T10:11:32.479Z,30.20
2022-10-02T10:14:18.011Z,27.20
2022-10-02T10:17:10.072Z,21.40
2022-10-02T10:20:09.569Z,30.40
2022-10-02T10:23:03.859Z,25.60
2022-10-02T10:25:35.748Z,27.60
2022-10-02T10:28:41.111Z,30.80
2022-10-02T10:31:37.970Z,31.00
2022-10-02T10:34:29.634Z,30.40
2022-10-02T10:37:25.196Z,29.80
2022-10-02T10:40:19.523Z,26.60
2022-10-02T10:43:16.801Z,30.20
2022-10-02T10:46:05.636Z,32.20
2022-10-02T10:48:54.497Z,32.20
2022-10-02T10:51:42.804Z,30.80
2022-10-02T10:54:34.056Z,32.40
2022-10-02T10:57:30.012Z,25.00
2022-10-02T11:00:21.361Z,27.20
2022-10-02T11:02:59.433Z,30.80
2022-10-02T11:06:04.862Z,36.00
2022-10-02T11:09:01.089Z,25.20
2022-10-02T11:11:36.306Z,31.60
2022-10-02T11:14:11.288Z,32.80
2022-10-02T11:17:16.711Z,20.60
2022-10-02T11:20:24.234Z,26.60
2022-10-02T11:23:19.894Z,27.00
2022-10-02T11:26:03.580Z,27.40
2022-10-02T11:28:45.130Z,25.40
2022-10-02T11:31:28.961Z,21.40
2022-10-02T11:34:22.411Z,20.60
2022-10-02T11:36:54.287Z,20.00
2022-10-02T11:39:59.497Z,19.20
2022-10-02T11:42:31.818Z,22.40
2022-10-02T11:45:24.138Z,17.60
2022-10-02T11:47:56.860Z,18.00
2022-10-02T11:50:50.317Z,23.00
2022-10-02T11:53:29.672Z,18.00
2022-10-02T11:56:04.598Z,17.80
2022-10-02T11:58:41.002Z,20.20
2022-10-02T12:01:25.081Z,20.20
2022-10-02T12:04:16.575Z,25.40
2022-10-02T12:06:57.301Z,21.20
2022-10-02T12:09:37.742Z,18.40
2022-10-02T12:12:19.339Z,19.80
2022-10-02T12:14:53.672Z,18.60
2022-10-02T12:17:55.993Z,20.80
2022-10-02T12:21:05.687Z,26.00
2022-10-02T12:24:01.494Z,19.40
2022-10-02T12:27:00.504Z,19.40
2022-10-02T12:29:55.359Z,18.20
2022-10-02T12:32:50.298Z,19.40
2022-10-02T12:35:40.019Z,22.40
2022-10-02T12:38:17.914Z,21.60
2022-10-02T12:40:52.885Z,15.60
2022-10-02T12:43:43.078Z,22.60
2022-10-02T12:46:35.309Z,19.20
2022-10-02T12:49:15.351Z,24.20
2022-10-02T12:51:50.388Z,20.80
2022-10-02T12:54:48.042Z,24.80
2022-10-02T12:57:49.771Z,20.60
2022-10-02T13:00:21.706Z,33.20
2022-10-02T13:03:01.552Z,21.00
2022-10-02T13:06:02.194Z,32.00
2022-10-02T13:08:53.585Z,29.00
2022-10-02T13:11:57.310Z,22.80
2022-10-02T13:14:44.471Z,18.40
2022-10-02T13:17:35.989Z,23.60
2022-10-02T13:20:37.145Z,13.60
2022-10-02T13:23:13.192Z,34.00
2022-10-02T13:25:47.651Z,20.80
2022-10-02T13:28:25.707Z,18.40
2022-10-02T13:31:25.390Z,23.80
2022-10-02T13:34:26.470Z,19.00
2022-10-02T13:37:01.801Z,24.40
2022-10-02T13:39:42.467Z,19.80
2022-10-02T13:42:29.206Z,17.60
2022-10-02T13:45:09.851Z,21.40
2022-10-02T13:47:53.433Z,20.80
2022-10-02T13:50:52.500Z,22.80
2022-10-02T13:53:33.181Z,25.80
2022-10-02T13:56:10.984Z,14.00
2022-10-02T13:58:50.638Z,13.60
2022-10-02T14:01:41.396Z,7.20
2022-10-02T14:04:28.430Z,8.00
2022-10-02T14:07:03.062Z,10.00
2022-10-02T14:09:37.668Z,7.00
2022-10-02T14:12:28.564Z,5.00
2022-10-02T14:15:09.220Z,9.20
2022-10-02T14:17:42.720Z,6.60
2022-10-02T14:20:35.455Z,9.60
2022-10-02T14:23:42.008Z,5.60
2022-10-02T14:26:48.737Z,9.20
2022-10-02T14:29:26.379Z,6.60
2022-10-02T14:32:13.525Z,10.40
2022-10-02T14:34:50.875Z,12.40
2022-10-02T14:37:41.730Z,7.00
2022-10-02T14:40:16.467Z,7.80
2022-10-02T14:43:09.675Z,11.40
2022-10-02T14:45:51.062Z,6.60
2022-10-02T14:48:38.463Z,8.00
2022-10-02T14:51:13.283Z,13.00
2022-10-02T14:53:48.055Z,8.60
2022-10-02T14:56:20.043Z,10.00
2022-10-02T14:59:11.151Z,9.20
2022-10-02T15:01:50.299Z,18.60
2022-10-02T15:04:26.533Z,13.60
2022-10-02T15:07:04.654Z,10.80
2022-10-02T15:09:54.575Z,12.60
2022-10-02T15:12:40.140Z,10.60
2022-10-02T15:15:28.410Z,10.80
2022-10-02T15:18:00.535Z,9.60
2022-10-02T15:20:32.488Z,7.00
2022-10-02T15:23:04.631Z,13.20
2022-10-02T15:25:52.994Z,12.00
2022-10-02T15:28:41.387Z,13.80
2022-10-02T15:31:22.442Z,10.60
2022-10-02T15:33:57.133Z,14.60
2022-10-02T15:36:54.648Z,7.00
2022-10-02T15:39:29.126Z,13.60
2022-10-02T15:42:12.602Z,16.00
2022-10-02T15:44:59.572Z,11.20
2022-10-02T15:47:36.045Z,15.40
2022-10-02T15:50:17.144Z,14.60
2022-10-02T15:53:08.878Z,18.20
2022-10-02T15:55:46.206Z,18.80
2022-10-02T15:58:28.289Z,16.20
2022-10-02T16:01:02.828Z,26.00
2022-10-02T16:03:44.068Z,18.20
2022-10-02T16:06:40.403Z,20.20
2022-10-02T16:09:30.792Z,23.40
2022-10-02T16:12:23.939Z,16.20
2022-10-02T16:15:01.873Z,15.40
2022-10-02T16:17:42.358Z,22.80
2022-10-02T16:20:26.461Z,13.60
2022-10-02T16:23:01.195Z,13.00
2022-10-02T16:25:52.325Z,15.60
2022-10-02T16:28:43.815Z,24.25
2022-10-02T16:31:17.697Z,18.20
2022-10-02T16:34:15.383Z,13.40
2022-10-02T16:36:47.372Z,9.00
2022-10-02T16:39:28.653Z,7.20
2022-10-02T16:42:34.566Z,6.80
2022-10-02T16:45:21.722Z,5.80
2022-10-02T16:47:53.662Z,7.20
2022-10-02T16:50:28.342Z,5.80
2022-10-02T16:53:00.345Z,5.60
2022-10-02T16:55:47.205Z,3.80
2022-10-02T16:58:49.798Z,5.40
2022-10-02T17:02:05.857Z,6.00
2022-10-02T17:04:40.414Z,4.25
2022-10-02T17:07:31.136Z,7.60
2022-10-02T17:10:03.055Z,4.25
2022-10-02T17:12:35.013Z,5.25
2022-10-02T17:15:15.584Z,7.25
2022-10-02T17:17:53.049Z,4.75
2022-10-02T17:20:30.488Z,6.00
2022-10-02T17:23:31.155Z,5.00
2022-10-02T17:26:06.015Z,6.25
2022-10-02T17:29:01.913Z,5.00
2022-10-02T17:31:42.299Z,4.50
2022-10-02T17:34:23.109Z,6.00
2022-10-02T17:37:09.972Z,7.25
2022-10-02T17:40:18.383Z,4.50
2022-10-02T17:42:53.264Z,4.75
2022-10-02T17:45:26.665Z,5.50
2022-10-02T17:47:58.616Z,5.00
2022-10-02T17:50:36.474Z,5.50
2022-10-02T17:53:38.163Z,2.50
2022-10-02T17:56:30.820Z,3.75
2022-10-02T17:59:02.641Z,2.50
2022-10-02T18:01:53.133Z,3.00
2022-10-02T18:04:43.204Z,6.25
2022-10-02T18:07:17.692Z,12.75
2022-10-02T18:09:58.260Z,13.25
2022-10-02T18:12:59.121Z,18.75
2022-10-02T18:16:05.669Z,29.00
2022-10-02T18:18:37.643Z,26.75
2022-10-02T18:21:30.548Z,25.50
2022-10-02T18:24:17.777Z,27.75
2022-10-02T18:27:06.324Z,33.00
2022-10-02T18:29:59.211Z,26.75
2022-10-02T18:32:43.798Z,23.75
2022-10-02T18:35:28.710Z,21.50
2022-10-02T18:38:34.101Z,21.50
2022-10-02T18:41:06.046Z,23.00
2022-10-02T18:43:53.009Z,24.50
2022-10-02T18:46:33.724Z,29.50
2022-10-02T18:49:29.775Z,25.00
2022-10-02T18:52:01.626Z,25.00
2022-10-02T18:54:41.257Z,29.75
2022-10-02T18:57:23.746Z,28.75
2022-10-02T19:00:11.357Z,30.00
2022-10-02T19:03:01.685Z,30.75
2022-10-02T19:05:45.591Z,25.75
2022-10-02T19:08:24.378Z,27.25
2022-10-02T19:10:53.358Z,22.50
2022-10-02T19:13:28.131Z,24.50
2022-10-02T19:16:00.888Z,21.75
2022-10-02T19:18:33.306Z,21.50
2022-10-02T19:21:10.890Z,23.75
2022-10-02T19:23:59.711Z,24.00
2022-10-02T19:26:37.543Z,20.25
2022-10-02T19:29:19.575Z,21.00
2022-10-02T19:31:48.586Z,21.00
2022-10-02T19:34:24.628Z,16.25
2022-10-02T19:36:57.249Z,10.50
2022-10-02T19:39:38.338Z,6.75
2022-10-02T19:42:13.428Z,6.25
2022-10-02T19:44:48.075Z,7.25
2022-10-02T19:47:41.218Z,4.00
2022-10-02T19:50:25.192Z,4.50
2022-10-02T19:52:57.196Z,6.00
2022-10-02T19:55:34.752Z,8.00
2022-10-02T19:58:12.418Z,6.00
2022-10-02T20:00:43.517Z,6.25
2022-10-02T20:03:15.880Z,6.75
2022-10-02T20:05:47.381Z,6.50
2022-10-02T20:08:22.221Z,6.25
2022-10-02T20:10:59.919Z,8.00
2022-10-02T20:13:43.847Z,7.75
2022-10-02T20:16:44.667Z,6.00
2022-10-02T20:19:25.255Z,8.75
2022-10-02T20:21:56.897Z,9.00
2022-10-02T20:24:44.697Z,4.00
2022-10-02T20:27:16.587Z,7.50
2022-10-02T20:29:48.417Z,6.00
2022-10-02T20:32:20.320Z,7.25
2022-10-02T20:34:53.634Z,7.00
2022-10-02T20:37:29.546Z,6.75
2022-10-02T20:40:02.475Z,8.00
2022-10-02T20:42:43.538Z,6.25
2022-10-02T20:45:14.537Z,7.00
2022-10-02T20:47:51.977Z,6.00
2022-10-02T20:50:27.177Z,7.00
2022-10-02T20:53:08.000Z,4.75
2022-10-02T20:55:42.494Z,7.25
2022-10-02T20:58:31.157Z,7.00
2022-10-02T21:01:19.861Z,8.50
2022-10-02T21:03:54.568Z,10.50
2022-10-02T21:06:42.812Z,6.75
2022-10-02T21:09:39.047Z,7.25
2022-10-02T21:12:32.127Z,4.25
2022-10-02T21:15:23.432Z,4.00
2022-10-02T21:18:11.835Z,6.75
2022-10-02T21:20:51.534Z,4.50
2022-10-02T21:23:46.021Z,10.00
2022-10-02T21:26:51.406Z,9.00
2022-10-02T21:29:29.078Z,6.00
2022-10-02T21:32:06.701Z,6.00
2022-10-02T21:34:47.304Z,7.50
2022-10-02T21:37:25.885Z,7.75
2022-10-02T21:40:17.077Z,7.50
2022-10-02T21:43:06.887Z,3.00
2022-10-02T21:46:14.159Z,6.75
2022-10-02T21:49:18.435Z,5.25
2022-10-02T21:52:16.031Z,6.00
2022-10-02T21:55:13.215Z,4.00
2022-10-02T21:58:03.033Z,4.50
2022-10-02T22:00:32.291Z,6.25
2022-10-02T22:03:31.682Z,4.50
2022-10-02T22:06:09.390Z,5.00
2022-10-02T22:08:56.958Z,7.75
2022-10-02T22:11:46.413Z,4.50
2022-10-02T22:14:19.541Z,2.75
2022-10-02T22:17:16.343Z,6.75
2022-10-02T22:20:00.168Z,4.75
2022-10-02T22:22:43.887Z,3.25
2022-10-02T22:25:39.127Z,4.75
2022-10-02T22:28:17.028Z,5.50
2022-10-02T22:31:01.251Z,5.00
2022-10-02T22:33:55.363Z,6.25
2022-10-02T22:36:54.190Z,4.00
2022-10-02T22:39:31.845Z,7.00
2022-10-02T22:42:21.722Z,7.00
2022-10-02T22:44:56.251Z,6.50
2022-10-02T22:47:28.935Z,7.00
2022-10-02T22:50:00.754Z,9.00
2022-10-02T22:52:36.120Z,3.75
2022-10-02T22:55:11.047Z,6.75
2022-10-02T22:58:04.836Z,5.75
2022-10-02T23:00:39.305Z,2.75
2022-10-02T23:03:14.117Z,10.00
2022-10-02T23:05:48.429Z,7.00
2022-10-02T23:08:41.855Z,4.50
2022-10-02T23:11:28.736Z,7.25
2022-10-02T23:14:00.617Z,4.00
2022-10-02T23:16:49.309Z,7.00
2022-10-02T23:19:24.254Z,5.75
2022-10-02T23:21:58.816Z,3.00
2022-10-02T23:24:30.646Z,3.00
2022-10-02T23:27:08.770Z,4.25
2022-10-02T23:29:45.120Z,4.00
2022-10-02T23:32:47.316Z,5.50
2022-10-02T23:35:19.428Z,6.50
2022-10-02T23:37:54.283Z,1.25
2022-10-02T23:41:09.666Z,3.00
2022-10-02T23:43:45.842Z,4.75
2022-10-02T23:46:18.186Z,7.50
2022-10-02T23:48:47.570Z,5.25
2022-10-02T23:51:32.180Z,7.50
2022-10-02T23:54:25.313Z,0.00
2022-10-02T23:57:16.515Z,6.50
2022-10-02T23:59:55.551Z,10.25
